createdAt,value
2023-03-24T00:01:52.362Z,99436.09
2023-03-24T00:04:19.719Z,99432.72
2023-03-24T00:06:49.114Z,99435.34
2023-03-24T00:09:16.854Z,99424.88
2023-03-24T00:11:45.635Z,99417.19
2023-03-24T00:14:12.972Z,99422.75
2023-03-24T00:16:42.486Z,99423.47
2023-03-24T00:19:10.537Z,99411.56
2023-03-24T00:21:38.293Z,99409.28
2023-03-24T00:24:07.434Z,99405.88
2023-03-24T00:26:35.078Z,99403.03
2023-03-24T00:29:04.666Z,99399.22
2023-03-24T00:31:32.771Z,99396.94
2023-03-24T00:34:02.150Z,99399.22
2023-03-24T00:36:29.674Z,99396.44
2023-03-24T00:38:57.819Z,99391.19
2023-03-24T00:41:27.133Z,99387.03
2023-03-24T00:43:56.182Z,99393.69
2023-03-24T00:46:32.167Z,99391.75
2023-03-24T00:49:03.028Z,99386.06
2023-03-24T00:51:31.709Z,99386.78
2023-03-24T00:53:59.289Z,99378.50
2023-03-24T00:56:27.621Z,99380.75
2023-03-24T00:58:57.692Z,99377.69
2023-03-24T01:01:29.415Z,99374.72
2023-03-24T01:03:57.154Z,99375.47
2023-03-24T01:06:24.862Z,99364.44
2023-03-24T01:08:53.953Z,99365.44
2023-03-24T01:11:22.302Z,99369.97
2023-03-24T01:13:49.960Z,99361.81
2023-03-24T01:16:17.416Z,99362.09
2023-03-24T01:18:46.549Z,99355.03
2023-03-24T01:21:14.343Z,99352.47
2023-03-24T01:23:42.794Z,99349.66
2023-03-24T01:26:11.039Z,99353.59
2023-03-24T01:28:40.908Z,99348.59
2023-03-24T01:31:09.883Z,99347.63
2023-03-24T01:33:37.693Z,99339.16
2023-03-24T01:36:07.375Z,99338.84
2023-03-24T01:38:35.344Z,99335.69
2023-03-24T01:41:02.829Z,99340.94
2023-03-24T01:43:31.849Z,99334.56
2023-03-24T01:46:01.572Z,99334.25
2023-03-24T01:48:30.663Z,99327.50
2023-03-24T01:50:59.368Z,99325.34
2023-03-24T01:53:28.303Z,99330.53
2023-03-24T01:55:55.752Z,99320.06
2023-03-24T01:58:26.147Z,99327.84
2023-03-24T02:00:53.540Z,99327.69
2023-03-24T02:03:22.755Z,99322.13
2023-03-24T02:05:51.686Z,99325.13
2023-03-24T02:08:21.341Z,99320.31
2023-03-24T02:10:50.865Z,99318.31
2023-03-24T02:13:18.127Z,99323.72
2023-03-24T02:15:51.368Z,99315.00
2023-03-24T02:18:25.610Z,99317.63
2023-03-24T02:21:05.182Z,99321.56
2023-03-24T02:23:58.908Z,99319.81
2023-03-24T02:26:42.136Z,99318.22
2023-03-24T02:29:32.345Z,99318.41
2023-03-24T02:32:10.113Z,99312.00
2023-03-24T02:34:51.983Z,99311.81
2023-03-24T02:37:29.758Z,99315.25
2023-03-24T02:40:06.925Z,99308.63
2023-03-24T02:42:43.170Z,99300.84
2023-03-24T02:45:17.181Z,99295.44
2023-03-24T02:47:47.082Z,99292.94
2023-03-24T02:50:19.376Z,99289.34
2023-03-24T02:52:47.622Z,99290.38
2023-03-24T02:55:21.131Z,99288.84
2023-03-24T02:57:51.512Z,99286.47
2023-03-24T03:00:23.553Z,99287.88
2023-03-24T03:02:53.935Z,99282.94
2023-03-24T03:05:24.324Z,99279.97
2023-03-24T03:07:53.040Z,99277.25
2023-03-24T03:10:24.306Z,99276.41
2023-03-24T03:12:54.002Z,99277.25
2023-03-24T03:15:23.959Z,99277.25
2023-03-24T03:17:54.042Z,99275.66
2023-03-24T03:20:23.195Z,99281.03
2023-03-24T03:22:52.024Z,99281.03
2023-03-24T03:25:22.701Z,99280.31
2023-03-24T03:27:52.931Z,99289.22
2023-03-24T03:30:23.978Z,99286.41
2023-03-24T03:32:55.953Z,99278.72
2023-03-24T03:35:25.308Z,99270.78
2023-03-24T03:37:54.726Z,99263.97
2023-03-24T03:40:23.815Z,99261.53
2023-03-24T03:42:52.853Z,99255.56
2023-03-24T03:45:20.339Z,99252.63
2023-03-24T03:47:47.795Z,99242.31
2023-03-24T03:50:15.489Z,99225.25
2023-03-24T03:52:44.619Z,99223.31
2023-03-24T03:55:12.452Z,99225.25
2023-03-24T03:57:39.852Z,99248.06
2023-03-24T04:00:11.970Z,99263.75
2023-03-24T04:02:44.732Z,99233.00
2023-03-24T04:05:20.182Z,99237.81
2023-03-24T04:07:57.997Z,99230.00
2023-03-24T04:10:30.792Z,99223.31
2023-03-24T04:13:04.980Z,99231.91
2023-03-24T04:15:37.865Z,99220.44
2023-03-24T04:18:16.891Z,99219.41
2023-03-24T04:20:47.565Z,99232.09
2023-03-24T04:23:18.359Z,99226.06
2023-03-24T04:25:50.744Z,99223.50
2023-03-24T04:28:26.214Z,99223.91
2023-03-24T04:31:01.235Z,99216.13
2023-03-24T04:33:31.389Z,99218.72
2023-03-24T04:36:06.287Z,99219.88
2023-03-24T04:38:35.857Z,99217.19
2023-03-24T04:41:05.413Z,99223.03
2023-03-24T04:43:36.707Z,99215.41
2023-03-24T04:46:06.561Z,99211.94
2023-03-24T04:48:33.952Z,99207.97
2023-03-24T04:51:03.191Z,99202.69
2023-03-24T04:53:30.853Z,99203.06
2023-03-24T04:56:02.196Z,99203.91
2023-03-24T04:58:29.528Z,99200.94
2023-03-24T05:00:58.699Z,99196.53
2023-03-24T05:03:27.444Z,99191.84
2023-03-24T05:05:54.712Z,99192.91
2023-03-24T05:08:22.394Z,99196.78
2023-03-24T05:10:49.763Z,99193.22
2023-03-24T05:13:17.430Z,99180.47
2023-03-24T05:15:45.071Z,99179.16
2023-03-24T05:18:12.525Z,99176.84
2023-03-24T05:20:41.212Z,99178.94
2023-03-24T05:23:08.464Z,99173.94
2023-03-24T05:25:35.738Z,99174.53
2023-03-24T05:28:03.089Z,99168.31
2023-03-24T05:30:30.388Z,99170.56
2023-03-24T05:32:57.762Z,99164.16
2023-03-24T05:35:25.574Z,99168.56
2023-03-24T05:37:54.204Z,99159.84
2023-03-24T05:40:21.510Z,99161.41
2023-03-24T05:42:49.275Z,99146.22
2023-03-24T05:45:16.720Z,99146.81
2023-03-24T05:47:44.061Z,99142.38
2023-03-24T05:50:11.797Z,99143.06
2023-03-24T05:52:39.405Z,99138.97
2023-03-24T05:55:09.365Z,99126.41
2023-03-24T05:57:36.754Z,99132.66
2023-03-24T06:00:06.840Z,99127.06
2023-03-24T06:02:34.485Z,99124.50
2023-03-24T06:05:01.947Z,99134.25
2023-03-24T06:07:30.655Z,99128.88
2023-03-24T06:09:58.269Z,99116.47
2023-03-24T06:12:27.074Z,99112.59
2023-03-24T06:14:54.338Z,99112.88
2023-03-24T06:17:22.140Z,99108.84
2023-03-24T06:19:49.863Z,99109.16
2023-03-24T06:22:17.592Z,99105.63
2023-03-24T06:24:44.906Z,99108.16
2023-03-24T06:27:14.029Z,99117.03
2023-03-24T06:29:43.225Z,99106.16
2023-03-24T06:32:10.793Z,99104.78
2023-03-24T06:34:38.663Z,99106.63
2023-03-24T06:37:05.962Z,99097.56
2023-03-24T06:39:33.249Z,99097.69
2023-03-24T06:42:00.551Z,99097.38
2023-03-24T06:44:27.900Z,99096.72
2023-03-24T06:46:56.507Z,99091.34
2023-03-24T06:49:23.854Z,99093.72
2023-03-24T06:51:51.476Z,99092.06
2023-03-24T06:54:18.970Z,99101.19
2023-03-24T06:56:46.359Z,99094.13
2023-03-24T06:59:13.758Z,99096.16
2023-03-24T07:01:41.064Z,99103.00
2023-03-24T07:04:09.701Z,99100.31
2023-03-24T07:06:50.583Z,99101.28
2023-03-24T07:09:24.695Z,99094.28
2023-03-24T07:11:51.967Z,99093.75
2023-03-24T07:14:19.219Z,99094.66
2023-03-24T07:16:46.684Z,99099.19
2023-03-24T07:19:15.358Z,99093.50
2023-03-24T07:21:42.621Z,99098.03
2023-03-24T07:24:09.973Z,99098.91
2023-03-24T07:26:37.396Z,99103.66
2023-03-24T07:29:04.690Z,99099.63
2023-03-24T07:31:37.632Z,99089.41
2023-03-24T07:34:05.035Z,99094.81
2023-03-24T07:36:33.600Z,99104.63
2023-03-24T07:39:00.885Z,99100.75
2023-03-24T07:41:29.292Z,99099.13
2023-03-24T07:43:56.707Z,99100.47
2023-03-24T07:46:24.068Z,99079.41
2023-03-24T07:48:51.383Z,99082.78
2023-03-24T07:51:19.899Z,99088.53
2023-03-24T07:53:48.542Z,99093.59
2023-03-24T07:56:16.079Z,99092.78
2023-03-24T07:58:43.546Z,99093.63
2023-03-24T08:01:11.295Z,99088.06
2023-03-24T08:03:38.822Z,99095.19
2023-03-24T08:06:06.996Z,99088.00
2023-03-24T08:08:34.458Z,99085.47
2023-03-24T08:11:03.080Z,99090.97
2023-03-24T08:13:30.531Z,99090.09
2023-03-24T08:15:57.836Z,99088.84
2023-03-24T08:18:25.500Z,99091.41
2023-03-24T08:20:56.632Z,99091.34
2023-03-24T08:23:24.027Z,99084.22
2023-03-24T08:25:51.632Z,99084.69
2023-03-24T08:28:20.580Z,99081.94
2023-03-24T08:30:48.358Z,99095.31
2023-03-24T08:33:16.732Z,99078.69
2023-03-24T08:35:45.982Z,99079.34
2023-03-24T08:38:15.579Z,99082.22
2023-03-24T08:40:44.134Z,99088.31
2023-03-24T08:43:14.125Z,99089.19
2023-03-24T08:45:42.694Z,99087.47
2023-03-24T08:48:10.705Z,99086.09
2023-03-24T08:50:39.275Z,99093.00
2023-03-24T08:53:07.057Z,99086.59
2023-03-24T08:55:34.878Z,99087.25
2023-03-24T08:58:02.764Z,99087.34
2023-03-24T09:00:30.370Z,99092.22
2023-03-24T09:03:01.059Z,99087.91
2023-03-24T09:05:41.412Z,99088.25
2023-03-24T09:08:12.341Z,99074.63
2023-03-24T09:10:39.648Z,99082.47
2023-03-24T09:13:07.022Z,99073.50
2023-03-24T09:15:34.515Z,99079.91
2023-03-24T09:18:03.628Z,99080.75
2023-03-24T09:20:30.977Z,99077.03
2023-03-24T09:22:58.329Z,99082.84
2023-03-24T09:25:25.938Z,99082.09
2023-03-24T09:27:53.208Z,99080.16
2023-03-24T09:30:20.615Z,99073.03
2023-03-24T09:32:48.298Z,99083.22
2023-03-24T09:35:17.908Z,99082.88
2023-03-24T09:37:45.572Z,99084.47
2023-03-24T09:40:19.086Z,99087.19
2023-03-24T09:42:50.867Z,99085.34
2023-03-24T09:45:19.648Z,99088.50
2023-03-24T09:47:50.055Z,99092.72
2023-03-24T09:50:22.928Z,99086.91
2023-03-24T09:52:52.938Z,99090.81
2023-03-24T09:55:22.175Z,99083.09
2023-03-24T09:57:50.601Z,99087.63
2023-03-24T10:00:19.985Z,99080.53
2023-03-24T10:02:49.086Z,99080.38
2023-03-24T10:05:18.776Z,99084.59
2023-03-24T10:07:52.313Z,99088.81
2023-03-24T10:10:23.690Z,99094.88
2023-03-24T10:12:50.989Z,99081.97
2023-03-24T10:15:30.931Z,99084.84
2023-03-24T10:18:13.682Z,99076.31
2023-03-24T10:20:44.498Z,99086.88
2023-03-24T10:23:21.537Z,99095.56
2023-03-24T10:25:52.412Z,99090.06
2023-03-24T10:28:21.170Z,99076.59
2023-03-24T10:30:49.528Z,99068.38
2023-03-24T10:33:17.612Z,99066.78
2023-03-24T10:35:47.847Z,99073.88
2023-03-24T10:38:18.849Z,99073.25
2023-03-24T10:40:46.821Z,99080.25
2023-03-24T10:43:14.393Z,99087.56
2023-03-24T10:45:44.674Z,99072.41
2023-03-24T10:48:14.105Z,99083.38
2023-03-24T10:50:42.713Z,99080.88
2023-03-24T10:53:10.710Z,99084.50
2023-03-24T10:55:40.092Z,99080.00
2023-03-24T10:58:16.431Z,99079.03
2023-03-24T11:00:45.266Z,99079.97
2023-03-24T11:03:15.424Z,99081.06
2023-03-24T11:05:44.123Z,99078.34
2023-03-24T11:08:14.608Z,99065.81
2023-03-24T11:10:43.212Z,99078.94
2023-03-24T11:13:19.069Z,99090.38
2023-03-24T11:15:57.046Z,99093.41
2023-03-24T11:18:24.306Z,99092.34
2023-03-24T11:20:54.193Z,99095.44
2023-03-24T11:23:22.082Z,99117.81
2023-03-24T11:25:53.863Z,99114.44
2023-03-24T11:28:22.382Z,99107.84
2023-03-24T11:30:51.054Z,99118.25
2023-03-24T11:33:20.615Z,99114.81
2023-03-24T11:36:05.914Z,99112.22
2023-03-24T11:38:35.931Z,99109.78
2023-03-24T11:41:05.811Z,99107.81
2023-03-24T11:43:33.349Z,99109.31
2023-03-24T11:46:02.211Z,99128.47
2023-03-24T11:48:33.029Z,99115.66
2023-03-24T11:51:00.855Z,99117.63
2023-03-24T11:53:29.284Z,99116.50
2023-03-24T11:56:00.779Z,99113.06
2023-03-24T11:58:32.627Z,99111.09
2023-03-24T12:01:04.089Z,99103.88
2023-03-24T12:03:50.047Z,99100.13
2023-03-24T12:06:26.643Z,99106.19
2023-03-24T12:09:00.236Z,99094.41
2023-03-24T12:11:32.161Z,99103.72
2023-03-24T12:14:02.648Z,99079.16
2023-03-24T12:16:40.174Z,99069.38
2023-03-24T12:19:31.807Z,99064.72
2023-03-24T12:22:05.711Z,99065.47
2023-03-24T12:24:43.868Z,99058.88
2023-03-24T12:27:19.933Z,99061.72
2023-03-24T12:29:57.348Z,99054.09
2023-03-24T12:32:35.167Z,99068.16
2023-03-24T12:35:11.359Z,99069.53
2023-03-24T12:37:45.620Z,99064.22
2023-03-24T12:40:32.634Z,99073.81
2023-03-24T12:43:03.753Z,99071.47
2023-03-24T12:45:38.539Z,99070.34
2023-03-24T12:48:21.261Z,99069.88
2023-03-24T12:50:54.684Z,99075.75
2023-03-24T12:53:31.975Z,99077.72
2023-03-24T12:56:02.305Z,99081.94
2023-03-24T12:58:37.450Z,99054.88
2023-03-24T13:01:08.356Z,99068.63
2023-03-24T13:03:39.264Z,99064.16
2023-03-24T13:06:17.269Z,99055.22
2023-03-24T13:08:49.309Z,99064.50
2023-03-24T13:11:32.342Z,99067.53
2023-03-24T13:14:02.120Z,99071.47
2023-03-24T13:16:32.521Z,99060.28
2023-03-24T13:19:02.135Z,99055.59
2023-03-24T13:21:31.771Z,99059.69
2023-03-24T13:24:03.118Z,99056.13
2023-03-24T13:26:38.378Z,99046.56
2023-03-24T13:29:14.137Z,99046.06
2023-03-24T13:31:45.449Z,99051.00
2023-03-24T13:34:20.073Z,99056.25
2023-03-24T13:36:50.046Z,99044.38
2023-03-24T13:39:20.129Z,99045.50
2023-03-24T13:41:49.553Z,99043.19
2023-03-24T13:44:19.082Z,99028.22
2023-03-24T13:47:00.264Z,99028.31
2023-03-24T13:49:27.560Z,99032.06
2023-03-24T13:51:54.875Z,99024.47
2023-03-24T13:54:23.644Z,99034.03
2023-03-24T13:56:54.267Z,99018.78
2023-03-24T13:59:26.229Z,99020.50
2023-03-24T14:02:12.026Z,99030.00
2023-03-24T14:04:47.305Z,99084.47
2023-03-24T14:07:30.600Z,99112.81
2023-03-24T14:09:59.373Z,99184.00
2023-03-24T14:12:27.022Z,99181.59
2023-03-24T14:15:09.087Z,99196.31
2023-03-24T14:17:36.392Z,99214.72
2023-03-24T14:20:25.539Z,99226.34
2023-03-24T14:22:53.533Z,99204.56
2023-03-24T14:25:23.666Z,99211.06
2023-03-24T14:27:52.271Z,99226.34
2023-03-24T14:30:21.864Z,99226.66
2023-03-24T14:32:50.661Z,99236.94
2023-03-24T14:35:27.211Z,99228.63
2023-03-24T14:37:56.367Z,99229.75
2023-03-24T14:40:29.470Z,99223.81
2023-03-24T14:43:03.014Z,99223.34
2023-03-24T14:46:03.412Z,99233.50
2023-03-24T14:48:36.081Z,99224.09
2023-03-24T14:51:09.627Z,99232.09
2023-03-24T14:53:39.190Z,99233.53
2023-03-24T14:56:07.986Z,99231.09
2023-03-24T14:58:38.932Z,99229.91
2023-03-24T15:01:08.027Z,99230.06
2023-03-24T15:03:40.022Z,99240.06
2023-03-24T15:06:16.002Z,99250.81
2023-03-24T15:08:49.583Z,99239.91
2023-03-24T15:11:18.698Z,99241.00
2023-03-24T15:13:48.836Z,99239.81
2023-03-24T15:16:21.249Z,99224.69
2023-03-24T15:18:58.160Z,99216.03
2023-03-24T15:21:33.218Z,99219.78
2023-03-24T15:24:01.697Z,99217.75
2023-03-24T15:26:29.976Z,99206.53
2023-03-24T15:28:58.373Z,99217.06
2023-03-24T15:31:30.361Z,99213.06
2023-03-24T15:34:05.191Z,99213.00
2023-03-24T15:36:39.334Z,99222.16
2023-03-24T15:39:18.106Z,99198.22
2023-03-24T15:41:46.032Z,99183.09
2023-03-24T15:44:18.341Z,99179.22
2023-03-24T15:46:46.008Z,99174.31
2023-03-24T15:49:20.124Z,99161.41
2023-03-24T15:51:49.975Z,99136.13
2023-03-24T15:54:22.184Z,99143.28
2023-03-24T15:57:01.038Z,99154.53
2023-03-24T15:59:34.003Z,99163.22
2023-03-24T16:02:01.313Z,99157.13
2023-03-24T16:04:29.766Z,99147.72
2023-03-24T16:06:58.703Z,99153.44
2023-03-24T16:09:28.020Z,99159.69
2023-03-24T16:11:55.552Z,99154.22
2023-03-24T16:14:24.178Z,99148.44
2023-03-24T16:16:54.213Z,99153.47
2023-03-24T16:19:21.522Z,99148.53
2023-03-24T16:21:48.779Z,99147.28
2023-03-24T16:24:17.442Z,99145.28
2023-03-24T16:26:44.717Z,99159.78
2023-03-24T16:29:16.574Z,99164.16
2023-03-24T16:31:44.286Z,99167.16
2023-03-24T16:34:11.556Z,99178.88
2023-03-24T16:36:38.832Z,99168.22
2023-03-24T16:39:10.919Z,99162.53
2023-03-24T16:41:39.514Z,99153.47
2023-03-24T16:44:06.775Z,99162.69
2023-03-24T16:46:35.352Z,99156.59
2023-03-24T16:49:03.496Z,99157.66
2023-03-24T16:51:30.883Z,99164.50
2023-03-24T16:53:58.465Z,99164.28
2023-03-24T16:56:26.405Z,99161.19
2023-03-24T16:58:56.307Z,99141.53
2023-03-24T17:01:29.265Z,99141.53
2023-03-24T17:03:57.411Z,99148.75
2023-03-24T17:06:26.027Z,99143.19
2023-03-24T17:08:53.303Z,99135.63
2023-03-24T17:11:21.322Z,99144.41
2023-03-24T17:13:48.593Z,99158.22
2023-03-24T17:16:17.610Z,99161.97
2023-03-24T17:18:44.919Z,99159.97
2023-03-24T17:21:12.912Z,99164.09
2023-03-24T17:23:42.116Z,99172.28
2023-03-24T17:26:09.390Z,99185.16
2023-03-24T17:28:36.949Z,99183.97
2023-03-24T17:31:04.362Z,99186.72
2023-03-24T17:33:33.438Z,99186.97
2023-03-24T17:36:00.957Z,99190.94
2023-03-24T17:38:28.374Z,99187.16
2023-03-24T17:40:59.420Z,99184.19
2023-03-24T17:43:27.209Z,99182.78
2023-03-24T17:45:56.837Z,99184.16
2023-03-24T17:48:24.125Z,99186.16
2023-03-24T17:50:53.190Z,99189.56
2023-03-24T17:53:25.554Z,99188.75
2023-03-24T17:55:53.639Z,99186.47
2023-03-24T17:58:21.634Z,99199.88
2023-03-24T18:00:49.150Z,99195.22
2023-03-24T18:03:16.795Z,99195.81
2023-03-24T18:05:44.952Z,99198.06
2023-03-24T18:08:13.613Z,99206.72
2023-03-24T18:10:41.098Z,99202.75
2023-03-24T18:13:08.729Z,99218.41
2023-03-24T18:15:36.285Z,99224.06
2023-03-24T18:18:03.748Z,99222.25
2023-03-24T18:20:31.988Z,99225.38
2023-03-24T18:22:59.266Z,99223.09
2023-03-24T18:25:27.868Z,99214.75
2023-03-24T18:27:56.172Z,99222.53
2023-03-24T18:30:23.506Z,99214.88
2023-03-24T18:32:50.805Z,99220.25
2023-03-24T18:35:18.168Z,99228.19
2023-03-24T18:37:45.573Z,99224.94
2023-03-24T18:40:14.432Z,99223.94
2023-03-24T18:42:43.113Z,99236.81
2023-03-24T18:45:17.121Z,99230.59
2023-03-24T18:47:44.755Z,99236.41
2023-03-24T18:50:12.336Z,99235.97
2023-03-24T18:52:39.872Z,99239.63
2023-03-24T18:55:07.910Z,99239.22
2023-03-24T18:57:35.401Z,99230.88
2023-03-24T19:00:06.917Z,99228.31
2023-03-24T19:02:34.464Z,99251.22
2023-03-24T19:05:02.343Z,99240.91
2023-03-24T19:07:29.631Z,99244.44
2023-03-24T19:09:56.953Z,99246.91
2023-03-24T19:12:24.219Z,99255.72
2023-03-24T19:14:54.075Z,99256.81
2023-03-24T19:17:23.553Z,99254.28
2023-03-24T19:19:50.833Z,99267.03
2023-03-24T19:22:21.918Z,99254.91
2023-03-24T19:24:49.202Z,99264.09
2023-03-24T19:27:16.739Z,99265.66
2023-03-24T19:29:44.052Z,99253.69
2023-03-24T19:32:11.304Z,99258.56
2023-03-24T19:34:39.934Z,99257.44
2023-03-24T19:37:10.161Z,99259.13
2023-03-24T19:39:39.426Z,99269.75
2023-03-24T19:42:07.762Z,99273.44
2023-03-24T19:44:39.078Z,99280.81
2023-03-24T19:47:06.453Z,99270.31
2023-03-24T19:49:33.723Z,99269.63
2023-03-24T19:52:02.297Z,99260.28
2023-03-24T19:54:29.588Z,99258.44
2023-03-24T19:56:57.027Z,99269.78
2023-03-24T19:59:24.353Z,99269.94
2023-03-24T20:01:55.128Z,99267.78
2023-03-24T20:04:23.151Z,99267.63
2023-03-24T20:06:50.521Z,99264.66
2023-03-24T20:09:19.103Z,99259.59
2023-03-24T20:11:47.491Z,99270.28
2023-03-24T20:14:16.848Z,99264.88
2023-03-24T20:16:44.286Z,99263.06
2023-03-24T20:19:11.667Z,99265.94
2023-03-24T20:21:38.908Z,99267.31
2023-03-24T20:24:06.783Z,99266.72
2023-03-24T20:26:35.434Z,99259.28
2023-03-24T20:29:03.139Z,99256.59
2023-03-24T20:31:30.533Z,99257.53
2023-03-24T20:33:57.970Z,99261.97
2023-03-24T20:36:25.297Z,99265.59
2023-03-24T20:38:52.652Z,99276.13
2023-03-24T20:41:21.876Z,99274.94
2023-03-24T20:43:50.650Z,99283.13
2023-03-24T20:46:18.499Z,99283.19
2023-03-24T20:48:46.216Z,99271.50
2023-03-24T20:51:13.938Z,99271.47
2023-03-24T20:53:41.528Z,99266.50
2023-03-24T20:56:09.596Z,99280.56
2023-03-24T20:58:37.675Z,99281.03
2023-03-24T21:01:08.006Z,99275.53
2023-03-24T21:03:35.805Z,99268.78
2023-03-24T21:06:03.477Z,99270.75
2023-03-24T21:08:31.085Z,99278.34
2023-03-24T21:10:58.641Z,99271.97
2023-03-24T21:13:37.048Z,99286.44
2023-03-24T21:16:08.042Z,99288.50
2023-03-24T21:18:37.674Z,99277.81
2023-03-24T21:21:05.676Z,99289.19
2023-03-24T21:23:34.206Z,99279.59
2023-03-24T21:26:02.080Z,99283.97
2023-03-24T21:28:30.718Z,99278.72
2023-03-24T21:30:58.211Z,99289.34
2023-03-24T21:33:25.587Z,99276.72
2023-03-24T21:35:55.493Z,99274.88
2023-03-24T21:38:23.272Z,99275.91
2023-03-24T21:40:57.780Z,99265.56
2023-03-24T21:43:26.971Z,99262.34
2023-03-24T21:45:58.100Z,99266.53
2023-03-24T21:48:26.252Z,99262.91
2023-03-24T21:50:55.706Z,99277.16
2023-03-24T21:53:26.078Z,99283.69
2023-03-24T21:55:54.159Z,99291.22
2023-03-24T21:58:21.461Z,99289.03
2023-03-24T22:00:49.517Z,99291.22
2023-03-24T22:03:17.365Z,99297.09
2023-03-24T22:05:45.445Z,99304.28
2023-03-24T22:08:22.407Z,99303.59
2023-03-24T22:10:49.739Z,99302.34
2023-03-24T22:13:17.121Z,99302.91
2023-03-24T22:15:44.408Z,99305.56
2023-03-24T22:18:12.021Z,99291.59
2023-03-24T22:20:40.613Z,99297.00
2023-03-24T22:23:07.852Z,99291.53
2023-03-24T22:25:37.203Z,99292.78
2023-03-24T22:28:04.626Z,99281.63
2023-03-24T22:30:31.908Z,99278.13
2023-03-24T22:32:59.239Z,99281.25
2023-03-24T22:35:27.954Z,99282.06
2023-03-24T22:37:55.546Z,99285.47
2023-03-24T22:40:23.168Z,99279.53
2023-03-24T22:42:51.833Z,99278.69
2023-03-24T22:45:19.123Z,99283.22
2023-03-24T22:47:46.451Z,99271.19
2023-03-24T22:50:13.728Z,99277.00
2023-03-24T22:52:40.964Z,99266.53
2023-03-24T22:55:09.922Z,99272.72
2023-03-24T22:57:37.227Z,99275.53
2023-03-24T23:00:08.167Z,99269.13
2023-03-24T23:02:35.585Z,99263.75
2023-03-24T23:05:03.004Z,99260.81
2023-03-24T23:07:30.310Z,99263.47
2023-03-24T23:09:59.346Z,99265.34
2023-03-24T23:12:27.349Z,99266.19
2023-03-24T23:14:55.204Z,99274.41
2023-03-24T23:17:25.303Z,99270.56
2023-03-24T23:19:52.806Z,99282.06
2023-03-24T23:22:21.098Z,99284.03
2023-03-24T23:24:48.846Z,99284.06
2023-03-24T23:27:17.286Z,99270.75
2023-03-24T23:29:44.577Z,99279.09
2023-03-24T23:32:11.838Z,99283.63
2023-03-24T23:34:42.620Z,99278.66
2023-03-24T23:37:10.144Z,99282.91
2023-03-24T23:39:37.510Z,99280.53
2023-03-24T23:42:05.324Z,99282.94
2023-03-24T23:44:32.701Z,99284.63
2023-03-24T23:47:00.133Z,99290.00
2023-03-24T23:49:27.403Z,99282.06
2023-03-24T23:51:56.107Z,99279.38
2023-03-24T23:54:23.535Z,99289.59
2023-03-24T23:56:51.397Z,99288.31
2023-03-24T23:59:18.954Z,99285.75
